Time;durP1;ratioP1;P1;durP2;ratioP2;P2;SDS_P1;SDS_P2;PMS_P1;PMS_P2;Temp;Humidity;BMP_temperature;BMP_pressure;BME280_temperature;BME280_humidity;BME280_pressure;Samples;Min_cycle;Max_cycle;Signal;HPM_P1;HPM_P2
2022/05/28 00:00:17;;;;;;;9.35;1.88;;;14.20;99.90;;;;;;4955002;28;36494;-75
2022/05/28 00:02:44;;;;;;;9.93;2.10;;;14.10;99.90;;;;;;4952554;28;38202;-73
2022/05/28 00:05:10;;;;;;;11.70;2.13;;;13.90;99.90;;;;;;4942455;28;39600;-72
2022/05/28 00:07:36;;;;;;;6.53;1.75;;;13.70;99.90;;;;;;4941653;28;36766;-74
2022/05/28 00:10:03;;;;;;;9.93;2.20;;;13.60;99.90;;;;;;4942830;28;37630;-74
2022/05/28 00:12:30;;;;;;;12.70;2.45;;;13.60;99.90;;;;;;4941988;28;47451;-73
2022/05/28 00:14:58;;;;;;;9.25;1.85;;;13.60;99.90;;;;;;4941413;28;39125;-75
2022/05/28 00:17:24;;;;;;;9.93;2.25;;;13.60;99.90;;;;;;4956153;28;37152;-73
2022/05/28 00:19:51;;;;;;;16.48;2.35;;;13.60;99.90;;;;;;4937136;28;43338;-74
2022/05/28 00:22:18;;;;;;;13.43;2.17;;;13.70;99.90;;;;;;4953877;28;38460;-74
2022/05/28 00:24:44;;;;;;;12.35;2.40;;;13.70;99.90;;;;;;4940048;28;38089;-74
2022/05/28 00:27:11;;;;;;;13.65;2.33;;;13.70;99.90;;;;;;4941272;28;37318;-73
2022/05/28 00:29:37;;;;;;;12.30;2.20;;;13.70;99.90;;;;;;4942416;28;38699;-73
2022/05/28 00:32:05;;;;;;;14.80;2.88;;;13.70;99.90;;;;;;4940564;28;40466;-74
2022/05/28 00:34:31;;;;;;;13.82;1.88;;;13.70;99.90;;;;;;4946296;28;38881;-74
2022/05/28 00:36:57;;;;;;;15.65;2.92;;;13.70;99.90;;;;;;4955896;28;38083;-74
2022/05/28 00:39:23;;;;;;;10.20;2.22;;;13.80;99.90;;;;;;4945276;28;38834;-74
2022/05/28 00:41:49;;;;;;;16.25;2.03;;;13.70;99.90;;;;;;4942869;28;42499;-76
2022/05/28 00:44:16;;;;;;;10.20;2.53;;;13.80;99.90;;;;;;4960358;28;36760;-74
2022/05/28 00:46:43;;;;;;;11.15;2.30;;;13.80;99.90;;;;;;4944213;28;38359;-74
2022/05/28 00:49:25;;;;;;;12.32;3.05;;;13.70;99.90;;;;;;4940159;28;39672;-74
2022/05/28 00:51:53;;;;;;;9.48;1.80;;;13.70;99.90;;;;;;4938345;28;37610;-73
2022/05/28 00:54:20;;;;;;;7.70;1.67;;;13.70;99.90;;;;;;4958194;28;37647;-74
2022/05/28 00:56:47;;;;;;;10.57;2.25;;;13.70;99.90;;;;;;4950090;28;37316;-74
2022/05/28 00:59:13;;;;;;;10.73;2.05;;;13.70;99.90;;;;;;4941167;28;39038;-74
2022/05/28 01:01:41;;;;;;;6.50;2.17;;;13.70;99.90;;;;;;4939030;28;38552;-73
2022/05/28 01:04:15;;;;;;;14.05;3.15;;;13.80;99.90;;;;;;4936513;28;38412;-74
2022/05/28 01:07:15;;;;;;;11.07;2.03;;;13.70;99.90;;;;;;4952420;28;37923;-74
2022/05/28 01:10:17;;;;;;;9.75;1.98;;;13.70;99.90;;;;;;4940082;28;47685;-74
2022/05/28 01:12:53;;;;;;;14.02;2.50;;;13.70;99.90;;;;;;4951962;28;48067;-73
2022/05/28 01:15:43;;;;;;;10.02;2.42;;;13.70;99.90;;;;;;4957771;28;39263;-73
2022/05/28 01:18:27;;;;;;;7.90;1.67;;;13.70;99.90;;;;;;4942424;28;37795;-74
2022/05/28 01:20:59;;;;;;;13.07;1.65;;;13.70;99.90;;;;;;4957135;28;37676;-74
2022/05/28 01:23:31;;;;;;;;;;;13.70;99.90;;;;;;4959422;28;40459;-74
2022/05/28 01:26:30;;;;;;;12.30;2.28;;;13.60;99.90;;;;;;4942215;28;39088;-73
2022/05/28 01:29:00;;;;;;;11.50;1.85;;;13.60;99.90;;;;;;4943436;28;47443;-73
2022/05/28 01:31:28;;;;;;;7.22;1.67;;;13.60;99.90;;;;;;4947499;28;39727;-74
2022/05/28 01:33:56;;;;;;;15.35;2.92;;;13.50;99.90;;;;;;4950237;28;39604;-74
2022/05/28 01:36:23;;;;;;;12.25;2.58;;;13.50;99.90;;;;;;4955934;28;38145;-74
2022/05/28 01:38:53;;;;;;;10.88;2.53;;;13.50;99.90;;;;;;4967123;28;37144;-74
2022/05/28 01:41:19;;;;;;;13.15;2.53;;;13.50;99.90;;;;;;4948221;28;38924;-73
2022/05/28 01:43:48;;;;;;;9.60;2.55;;;13.50;99.90;;;;;;4940882;28;39671;-73
2022/05/28 01:46:17;;;;;;;11.50;2.08;;;13.40;99.90;;;;;;4938324;28;40708;-74
2022/05/28 01:48:47;;;;;;;13.63;2.28;;;13.40;99.90;;;;;;4937734;28;20505;-74
2022/05/28 01:51:16;;;;;;;15.15;2.60;;;13.40;99.90;;;;;;4938871;28;39746;-76
2022/05/28 01:56:29;;;;;;;12.73;1.55;;;13.30;99.90;;;;;;4941354;28;50162;-73
2022/05/28 01:58:56;;;;;;;10.65;1.98;;;13.20;99.90;;;;;;4941750;28;37790;-73
2022/05/28 02:01:23;;;;;;;8.88;1.80;;;13.20;99.90;;;;;;4945380;28;38629;-74
2022/05/28 02:03:52;;;;;;;16.33;2.50;;;13.20;99.90;;;;;;4949578;28;38781;-73
2022/05/28 02:06:18;;;;;;;17.63;2.58;;;13.20;99.90;;;;;;4949576;28;38567;-73
2022/05/28 02:08:48;;;;;;;14.80;3.10;;;13.20;99.90;;;;;;4955818;28;37872;-73
2022/05/28 02:11:26;;;;;;;19.02;4.00;;;13.10;99.90;;;;;;4942085;28;39446;-74
2022/05/28 02:13:58;;;;;;;15.93;2.55;;;13.10;99.90;;;;;;4939643;28;40104;-74
2022/05/28 02:16:40;;;;;;;15.63;2.50;;;13.10;99.90;;;;;;4940565;28;36894;-74
2022/05/28 02:19:16;;;;;;;16.23;2.17;;;13.10;99.90;;;;;;4953766;28;37824;-74
2022/05/28 02:21:45;;;;;;;14.18;1.90;;;13.00;99.90;;;;;;4945157;28;38108;-73
2022/05/28 02:24:19;;;;;;;13.82;2.50;;;13.00;99.90;;;;;;4941323;28;38294;-73
2022/05/28 02:26:52;;;;;;;18.30;2.60;;;12.90;99.90;;;;;;4939947;28;38270;-74
2022/05/28 02:29:19;;;;;;;19.08;2.58;;;12.90;99.90;;;;;;4956555;28;37785;-73
2022/05/28 02:31:47;;;;;;;14.90;2.33;;;12.90;99.90;;;;;;4953719;28;39798;-73
2022/05/28 02:34:15;;;;;;;13.32;2.35;;;12.90;99.90;;;;;;4939052;28;38967;-73
2022/05/28 02:36:42;;;;;;;12.23;2.42;;;12.90;99.90;;;;;;4951531;28;37525;-74
2022/05/28 02:39:08;;;;;;;13.32;2.03;;;12.90;99.90;;;;;;4937918;28;37705;-74
2022/05/28 02:41:34;;;;;;;17.33;3.05;;;12.90;99.90;;;;;;4942584;28;38831;-74
2022/05/28 02:44:00;;;;;;;14.95;2.33;;;12.80;99.90;;;;;;4953186;28;40351;-73
2022/05/28 02:46:27;;;;;;;20.92;2.72;;;12.80;99.90;;;;;;4939772;28;47683;-73
2022/05/28 02:48:53;;;;;;;16.58;2.72;;;12.80;99.90;;;;;;4958329;28;38392;-74
2022/05/28 02:51:22;;;;;;;12.23;2.90;;;12.70;99.90;;;;;;4955026;28;39939;-73
2022/05/28 02:53:50;;;;;;;17.63;2.70;;;12.80;99.90;;;;;;4941072;28;38122;-74
2022/05/28 02:56:17;;;;;;;18.67;2.78;;;12.70;99.90;;;;;;4950834;28;39179;-74
2022/05/28 02:58:43;;;;;;;14.95;3.08;;;12.70;99.90;;;;;;4954550;28;38365;-74
2022/05/28 03:01:17;;;;;;;19.92;2.60;;;12.70;99.90;;;;;;4940361;28;39181;-74
2022/05/28 03:03:43;;;;;;;14.40;2.53;;;12.70;99.90;;;;;;4938390;28;40238;-75
2022/05/28 03:06:10;;;;;;;16.77;2.22;;;12.70;99.90;;;;;;4937977;28;39149;-74
2022/05/28 03:08:36;;;;;;;19.10;2.83;;;12.70;99.90;;;;;;4949515;28;38653;-73
2022/05/28 03:11:02;;;;;;;9.02;2.15;;;12.70;99.90;;;;;;4940230;28;39532;-74
2022/05/28 03:13:28;;;;;;;17.55;2.60;;;12.60;99.90;;;;;;4939928;28;38779;-73
2022/05/28 03:15:54;;;;;;;14.50;2.33;;;12.60;99.90;;;;;;4942117;28;38702;-74
2022/05/28 03:18:20;;;;;;;14.15;2.55;;;12.50;99.90;;;;;;4957104;28;37907;-74
2022/05/28 03:20:46;;;;;;;9.57;1.67;;;12.60;99.90;;;;;;4947241;28;38667;-75
2022/05/28 03:23:12;;;;;;;5.88;1.30;;;12.50;99.90;;;;;;4950318;28;41329;-75
2022/05/28 03:25:38;;;;;;;15.18;1.90;;;12.60;99.90;;;;;;4948516;28;37343;-74
2022/05/28 03:28:05;;;;;;;12.68;2.22;;;12.60;99.90;;;;;;4943879;28;37174;-74
2022/05/28 03:30:31;;;;;;;10.27;1.77;;;12.50;99.90;;;;;;4938509;28;37623;-74
2022/05/28 03:32:57;;;;;;;10.93;1.55;;;12.50;99.90;;;;;;4948841;28;38722;-74
2022/05/28 03:35:23;;;;;;;6.10;1.30;;;12.60;99.90;;;;;;4958781;28;40016;-74
2022/05/28 03:37:49;;;;;;;9.48;1.70;;;12.60;99.90;;;;;;4950014;28;37622;-73
2022/05/28 03:40:15;;;;;;;12.18;1.88;;;12.70;99.90;;;;;;4947103;28;39455;-74
2022/05/28 03:42:41;;;;;;;8.27;1.55;;;12.70;99.90;;;;;;4947265;28;38948;-74
2022/05/28 03:45:07;;;;;;;9.52;1.55;;;12.60;99.90;;;;;;4949033;28;38377;-74
2022/05/28 03:47:33;;;;;;;15.68;2.00;;;12.70;99.90;;;;;;4950039;28;37324;-75
2022/05/28 03:50:00;;;;;;;9.27;1.60;;;12.70;99.90;;;;;;4945927;28;39807;-74
2022/05/28 03:52:27;;;;;;;10.27;1.48;;;12.60;99.90;;;;;;4942658;28;47168;-74
2022/05/28 03:54:53;;;;;;;9.45;2.42;;;12.60;99.90;;;;;;4949346;28;38038;-75
2022/05/28 03:57:30;;;;;;;12.20;1.88;;;12.60;99.90;;;;;;4965432;28;37891;-76
2022/05/28 03:59:57;;;;;;;4.82;1.15;;;12.60;99.90;;;;;;4947517;28;38551;-77
2022/05/28 04:02:23;;;;;;;8.63;1.90;;;12.50;99.90;;;;;;4949566;28;39152;-76
2022/05/28 04:04:49;;;;;;;9.93;1.48;;;12.50;99.90;;;;;;4933055;28;38480;-75
2022/05/28 04:07:16;;;;;;;9.52;1.70;;;12.50;99.90;;;;;;4952821;28;38140;-74
2022/05/28 04:09:43;;;;;;;6.07;1.35;;;12.50;99.90;;;;;;4946196;28;40527;-74
2022/05/28 04:12:09;;;;;;;5.78;1.40;;;12.50;99.90;;;;;;4944717;28;39245;-75
2022/05/28 04:14:36;;;;;;;13.43;1.38;;;12.50;99.90;;;;;;4947258;28;38046;-74
2022/05/28 04:17:03;;;;;;;9.27;1.55;;;12.50;99.90;;;;;;4953599;28;37998;-75
2022/05/28 04:19:29;;;;;;;10.98;1.63;;;12.40;99.90;;;;;;4949285;28;40621;-75
2022/05/28 04:21:55;;;;;;;11.27;1.58;;;12.40;99.90;;;;;;4944386;28;39854;-76
2022/05/28 04:24:22;;;;;;;9.88;1.60;;;12.40;99.90;;;;;;4959218;28;38552;-75
2022/05/28 04:26:48;;;;;;;8.13;1.38;;;12.40;99.90;;;;;;4947081;28;36230;-74
2022/05/28 04:29:15;;;;;;;13.77;1.85;;;12.40;99.90;;;;;;4961484;28;37961;-74
2022/05/28 04:31:41;;;;;;;3.97;1.00;;;12.40;99.90;;;;;;4940538;28;38904;-73
2022/05/28 04:34:07;;;;;;;5.55;1.10;;;12.40;99.90;;;;;;4937184;28;37059;-74
2022/05/28 04:36:33;;;;;;;8.63;1.13;;;12.40;99.90;;;;;;4945200;28;37151;-73
2022/05/28 04:38:59;;;;;;;6.82;1.05;;;12.40;99.90;;;;;;4940677;28;38571;-74
2022/05/28 04:41:25;;;;;;;9.32;1.55;;;12.40;99.90;;;;;;4938466;28;39667;-74
2022/05/28 04:43:51;;;;;;;8.90;1.77;;;12.40;99.90;;;;;;4938654;28;39115;-73
2022/05/28 04:46:17;;;;;;;8.45;1.25;;;12.40;99.90;;;;;;4940587;28;37060;-74
2022/05/28 04:48:43;;;;;;;6.50;1.23;;;12.40;99.90;;;;;;4953124;28;40324;-74
2022/05/28 04:51:09;;;;;;;7.97;1.30;;;12.40;99.90;;;;;;4940258;28;39546;-74
2022/05/28 04:53:35;;;;;;;11.07;2.08;;;12.50;99.90;;;;;;4954654;28;39876;-74
2022/05/28 04:56:02;;;;;;;6.78;0.93;;;12.50;99.90;;;;;;4953762;28;37792;-74
2022/05/28 04:58:28;;;;;;;7.18;1.17;;;12.60;99.90;;;;;;4938771;28;39043;-74
2022/05/28 05:00:54;;;;;;;5.50;0.80;;;12.60;99.90;;;;;;4951708;28;38100;-74
2022/05/28 05:03:20;;;;;;;7.68;1.35;;;12.60;99.90;;;;;;4943690;28;39230;-74
2022/05/28 05:05:46;;;;;;;5.53;1.10;;;12.50;99.90;;;;;;4944126;28;38595;-74
2022/05/28 05:08:13;;;;;;;8.80;1.17;;;12.70;99.90;;;;;;4965824;28;39982;-74
2022/05/28 05:10:39;;;;;;;8.60;1.02;;;12.80;99.90;;;;;;4946370;28;38836;-74
2022/05/28 05:13:06;;;;;;;7.72;1.38;;;12.90;99.90;;;;;;4943521;28;38330;-74
2022/05/28 05:15:32;;;;;;;11.85;1.45;;;12.90;99.90;;;;;;4936334;28;36104;-74
2022/05/28 05:17:58;;;;;;;11.07;1.80;;;12.90;99.90;;;;;;4938404;28;40692;-74
2022/05/28 05:20:25;;;;;;;10.35;1.40;;;12.80;99.90;;;;;;4937167;28;38035;-74
2022/05/28 05:22:55;;;;;;;5.30;1.25;;;12.80;99.90;;;;;;4937395;28;38908;-74
2022/05/28 05:25:21;;;;;;;5.05;0.98;;;12.80;99.90;;;;;;4939565;28;38315;-75
2022/05/28 05:27:48;;;;;;;7.38;1.20;;;13.10;99.90;;;;;;4939004;28;37807;-72
2022/05/28 05:30:14;;;;;;;7.45;1.20;;;13.40;99.90;;;;;;4941607;28;39321;-72
2022/05/28 05:32:40;;;;;;;8.63;1.80;;;13.70;99.90;;;;;;4939395;28;37349;-74
2022/05/28 05:35:07;;;;;;;7.40;1.23;;;13.90;99.90;;;;;;4937289;28;35976;-73
2022/05/28 05:37:33;;;;;;;4.68;1.17;;;14.00;99.90;;;;;;4936943;28;38361;-73
2022/05/28 05:39:59;;;;;;;6.05;1.00;;;14.10;99.90;;;;;;4941001;28;39308;-73
2022/05/28 05:42:25;;;;;;;6.63;1.10;;;13.90;99.90;;;;;;4937463;28;38204;-73
2022/05/28 05:44:53;;;;;;;10.35;1.23;;;13.70;99.90;;;;;;4936796;28;38157;-73
2022/05/28 05:47:20;;;;;;;7.25;1.15;;;13.40;99.90;;;;;;4939898;28;39892;-74
2022/05/28 05:49:46;;;;;;;4.18;1.10;;;13.10;99.90;;;;;;4939359;28;39907;-73
2022/05/28 05:52:12;;;;;;;5.97;0.90;;;13.20;99.90;;;;;;4953074;28;40203;-74
2022/05/28 05:54:38;;;;;;;6.25;1.10;;;13.30;99.90;;;;;;4939314;28;37853;-74
2022/05/28 05:57:05;;;;;;;4.95;1.00;;;13.20;99.90;;;;;;4942952;28;38772;-74
2022/05/28 05:59:32;;;;;;;5.38;1.10;;;13.40;99.90;;;;;;4939106;28;37507;-73
2022/05/28 06:01:58;;;;;;;5.63;1.00;;;13.40;99.90;;;;;;4940601;28;38314;-73
2022/05/28 06:04:24;;;;;;;7.25;0.95;;;13.60;99.90;;;;;;4942453;28;37188;-74
2022/05/28 06:06:50;;;;;;;6.38;1.13;;;13.90;99.90;;;;;;4943519;28;38777;-73
2022/05/28 06:09:17;;;;;;;6.18;1.10;;;14.30;99.90;;;;;;4955086;28;38246;-74
2022/05/28 06:11:43;;;;;;;8.88;1.42;;;14.70;99.90;;;;;;4941826;28;39065;-74
2022/05/28 06:14:09;;;;;;;5.28;1.35;;;14.80;99.90;;;;;;4957632;28;37765;-74
2022/05/28 06:16:35;;;;;;;5.65;1.13;;;14.60;99.90;;;;;;4940928;28;38860;-74
2022/05/28 06:19:03;;;;;;;5.72;1.20;;;14.60;99.90;;;;;;4942914;28;38864;-75
2022/05/28 06:21:29;;;;;;;6.88;0.80;;;14.70;99.90;;;;;;4943614;28;38674;-74
2022/05/28 06:23:55;;;;;;;8.80;1.77;;;14.80;99.90;;;;;;4943238;28;37374;-75
2022/05/28 06:26:21;;;;;;;3.65;0.80;;;15.00;99.90;;;;;;4946309;28;37947;-75
2022/05/28 06:28:47;;;;;;;5.18;1.00;;;15.10;99.90;;;;;;4958999;28;40395;-74
2022/05/28 06:31:14;;;;;;;4.55;0.82;;;15.20;99.90;;;;;;4945632;28;38316;-75
2022/05/28 06:33:41;;;;;;;9.75;1.33;;;15.40;99.90;;;;;;4956193;28;40756;-75
2022/05/28 06:36:09;;;;;;;5.85;0.90;;;15.50;99.90;;;;;;4949218;28;38744;-75
2022/05/28 06:38:35;;;;;;;6.45;0.98;;;15.50;99.90;;;;;;4959782;28;39234;-75
2022/05/28 06:41:02;;;;;;;6.63;1.00;;;15.80;99.90;;;;;;4944908;28;38016;-75
2022/05/28 06:43:28;;;;;;;3.38;0.80;;;16.10;99.90;;;;;;4945381;28;48192;-75
2022/05/28 06:45:55;;;;;;;5.25;0.80;;;16.10;99.90;;;;;;4946356;28;39695;-75
2022/05/28 06:48:21;;;;;;;5.40;1.00;;;16.10;99.90;;;;;;4945091;28;38946;-75
2022/05/28 06:51:03;;;;;;;6.53;1.10;;;16.10;99.90;;;;;;4946142;28;40094;-75
2022/05/28 06:53:32;;;;;;;6.43;0.93;;;15.70;99.90;;;;;;4950546;28;48923;-74
2022/05/28 06:55:58;;;;;;;3.92;1.50;;;15.50;99.90;;;;;;4947400;28;38616;-75
2022/05/28 06:58:25;;;;;;;4.57;0.93;;;15.80;99.90;;;;;;4970805;28;37567;-74
2022/05/28 07:00:51;;;;;;;6.55;1.25;;;15.70;99.90;;;;;;4971670;28;40320;-75
2022/05/28 07:03:20;;;;;;;5.95;1.02;;;15.20;99.90;;;;;;4952055;28;38693;-75
2022/05/28 07:05:46;;;;;;;9.90;1.50;;;14.50;99.90;;;;;;4943878;28;38162;-75
2022/05/28 07:08:13;;;;;;;7.20;1.10;;;14.30;99.90;;;;;;4952027;28;39000;-74
2022/05/28 07:10:43;;;;;;;6.45;1.30;;;14.40;99.90;;;;;;4947100;28;38382;-74
2022/05/28 07:13:10;;;;;;;5.20;1.10;;;14.20;99.90;;;;;;4947021;28;39725;-75
2022/05/28 07:15:37;;;;;;;8.82;1.45;;;14.40;99.90;;;;;;4945947;28;39852;-75
2022/05/28 07:18:04;;;;;;;6.00;1.15;;;14.30;99.90;;;;;;4948611;28;40624;-75
2022/05/28 07:20:30;;;;;;;8.65;2.05;;;14.10;99.90;;;;;;4961356;28;39383;-75
2022/05/28 07:22:56;;;;;;;6.15;1.38;;;14.30;99.90;;;;;;4944841;28;38035;-74
2022/05/28 07:25:23;;;;;;;6.43;1.13;;;14.30;99.90;;;;;;4946617;28;39968;-75
2022/05/28 07:27:49;;;;;;;6.97;1.40;;;14.30;99.90;;;;;;4938833;28;38794;-75
2022/05/28 07:30:15;;;;;;;8.13;1.83;;;14.50;99.90;;;;;;4956974;28;39441;-74
2022/05/28 07:32:41;;;;;;;5.40;1.25;;;14.80;99.90;;;;;;4946756;28;38251;-75
2022/05/28 07:35:07;;;;;;;8.80;1.42;;;15.50;99.90;;;;;;4946413;28;39912;-75
2022/05/28 07:37:34;;;;;;;10.82;1.88;;;15.90;99.90;;;;;;4929052;28;41525;-75
2022/05/28 07:40:00;;;;;;;7.03;1.42;;;16.30;99.90;;;;;;4943092;28;37120;-74
2022/05/28 07:42:27;;;;;;;10.73;1.55;;;16.50;99.90;;;;;;4946873;28;37036;-75
2022/05/28 07:44:53;;;;;;;9.48;1.60;;;16.60;99.90;;;;;;4947197;28;39861;-75
2022/05/28 07:47:19;;;;;;;3.78;1.10;;;16.70;99.90;;;;;;4962100;28;38269;-75
2022/05/28 07:49:46;;;;;;;8.43;1.15;;;16.70;99.90;;;;;;4960544;28;37402;-76
2022/05/28 07:52:12;;;;;;;7.10;1.50;;;16.80;99.90;;;;;;4946875;28;37171;-75
2022/05/28 07:54:38;;;;;;;7.55;1.42;;;16.90;99.90;;;;;;4949517;28;38888;-75
2022/05/28 07:57:05;;;;;;;6.32;1.08;;;16.70;99.90;;;;;;4944267;28;38692;-77
2022/05/28 07:59:31;;;;;;;9.32;1.67;;;17.00;99.90;;;;;;4947006;28;37605;-75
2022/05/28 08:01:57;;;;;;;7.55;1.20;;;17.10;99.90;;;;;;4943364;28;37782;-76
2022/05/28 08:04:23;;;;;;;4.15;1.05;;;17.30;99.90;;;;;;4948720;28;38786;-75
2022/05/28 08:06:49;;;;;;;5.38;1.30;;;17.60;99.90;;;;;;4931286;28;37747;-75
2022/05/28 08:09:16;;;;;;;3.22;1.10;;;17.30;99.90;;;;;;4950901;28;37347;-76
2022/05/28 08:11:42;;;;;;;13.65;1.90;;;16.90;99.90;;;;;;4946269;28;36730;-76
2022/05/28 08:14:08;;;;;;;6.72;1.40;;;16.60;99.90;;;;;;4942513;28;39223;-77
2022/05/28 08:16:35;;;;;;;7.43;1.05;;;16.00;99.90;;;;;;4944782;28;40823;-83
2022/05/28 08:19:01;;;;;;;10.60;1.10;;;16.10;99.90;;;;;;4946970;28;38766;-82
2022/05/28 08:24:11;;;;;;;6.85;1.20;;;16.70;99.90;;;;;;4947168;28;39283;-82
2022/05/28 08:26:38;;;;;;;8.07;1.20;;;16.70;99.90;;;;;;4944013;28;38673;-82
2022/05/28 08:29:05;;;;;;;10.82;1.20;;;16.80;99.90;;;;;;4948035;28;38855;-81
2022/05/28 08:31:31;;;;;;;6.45;1.10;;;16.50;99.90;;;;;;4962868;28;38081;-79
2022/05/28 08:33:57;;;;;;;6.57;1.73;;;16.60;99.90;;;;;;4942795;28;38975;-81
2022/05/28 08:36:24;;;;;;;9.82;1.50;;;16.60;99.90;;;;;;4948751;28;39029;-83
2022/05/28 08:38:50;;;;;;;9.57;1.50;;;17.10;99.90;;;;;;4945521;28;38092;-83
2022/05/28 08:41:33;;;;;;;8.15;1.33;;;16.90;99.90;;;;;;4951658;28;36387;-83
2022/05/28 08:44:08;;;;;;;5.45;1.20;;;16.40;99.90;;;;;;4948609;28;38302;-79
2022/05/28 08:46:36;;;;;;;9.98;1.38;;;16.10;99.90;;;;;;4963591;28;47069;-79
2022/05/28 08:49:06;;;;;;;9.27;1.50;;;16.50;99.90;;;;;;4952781;28;38977;-80
2022/05/28 08:51:49;;;;;;;7.47;1.75;;;17.00;99.90;;;;;;4947307;28;36118;-82
2022/05/28 08:54:56;;;;;;;7.95;1.63;;;17.20;99.90;;;;;;4957282;28;38120;-79
2022/05/28 08:57:36;;;;;;;6.00;1.38;;;17.40;99.90;;;;;;4961857;28;38742;-82
2022/05/28 09:00:14;;;;;;;15.48;1.65;;;18.00;99.90;;;;;;4951660;28;40422;-79
2022/05/28 09:02:45;;;;;;;8.95;1.50;;;18.40;99.90;;;;;;4962148;28;48074;-78
2022/05/28 09:05:31;;;;;;;5.80;1.27;;;18.00;99.90;;;;;;4959096;28;39058;-79
2022/05/28 09:08:00;;;;;;;8.82;1.23;;;17.30;99.90;;;;;;4937043;28;39491;-80
2022/05/28 09:10:30;;;;;;;5.63;1.30;;;17.20;99.90;;;;;;4942417;28;38396;-81
2022/05/28 09:13:09;;;;;;;6.45;1.10;;;17.10;99.90;;;;;;4944758;28;37369;-79
2022/05/28 09:15:36;;;;;;;7.80;1.50;;;16.70;99.90;;;;;;4942807;28;48237;-80
2022/05/28 09:18:03;;;;;;;7.28;1.42;;;16.60;99.90;;;;;;4949135;28;38642;-79
2022/05/28 09:20:39;;;;;;;10.63;1.77;;;16.60;99.90;;;;;;4947567;28;37526;-78
2022/05/28 09:23:05;;;;;;;8.00;1.42;;;16.90;99.90;;;;;;4946710;28;38126;-78
2022/05/28 09:25:35;;;;;;;4.07;1.35;;;17.10;99.90;;;;;;4941090;28;38804;-80
2022/05/28 09:28:31;;;;;;;4.28;1.02;;;17.30;99.90;;;;;;4959639;28;41488;-78
2022/05/28 09:31:00;;;;;;;7.30;1.40;;;17.40;99.90;;;;;;4955396;28;46958;-79
2022/05/28 09:33:38;;;;;;;12.30;1.70;;;17.50;99.90;;;;;;4953756;28;46977;-82
2022/05/28 09:36:15;;;;;;;7.75;1.75;;;17.70;99.90;;;;;;4952005;28;39022;-80
2022/05/28 09:39:25;;;;;;;7.47;1.52;;;18.00;99.90;;;;;;4948544;28;38764;-77
2022/05/28 09:41:51;;;;;;;9.25;1.70;;;18.80;99.90;;;;;;4960961;28;47291;-82
2022/05/28 09:44:26;;;;;;;13.65;2.00;;;17.40;99.90;;;;;;4942778;28;37754;-82
2022/05/28 09:46:52;;;;;;;7.53;1.48;;;16.20;99.90;;;;;;4960500;28;39726;-81
2022/05/28 09:49:21;;;;;;;10.40;2.13;;;16.10;99.90;;;;;;4954622;28;39702;-79
2022/05/28 09:52:07;;;;;;;8.57;1.65;;;16.70;99.90;;;;;;4948797;28;38418;-82
2022/05/28 09:54:33;;;;;;;7.47;1.63;;;17.20;99.90;;;;;;4949099;28;47058;-81
2022/05/28 09:57:09;;;;;;;6.30;1.40;;;17.90;99.90;;;;;;4961929;28;37845;-80
2022/05/28 09:59:45;;;;;;;8.43;1.80;;;18.50;99.90;;;;;;4947420;28;48878;-78
2022/05/28 10:02:24;;;;;;;11.13;2.10;;;18.40;99.90;;;;;;4962158;28;40482;-77
2022/05/28 10:05:14;;;;;;;8.05;1.65;;;17.30;99.90;;;;;;4945102;28;36339;-78
2022/05/28 10:07:45;;;;;;;10.27;2.22;;;16.50;99.90;;;;;;4946948;28;48464;-77
2022/05/28 10:10:18;;;;;;;7.53;1.83;;;16.10;99.90;;;;;;4955664;28;39220;-78
2022/05/28 10:12:45;;;;;;;7.10;1.30;;;16.60;99.90;;;;;;4948298;28;38341;-79
2022/05/28 10:15:16;;;;;;;9.30;1.88;;;17.30;99.90;;;;;;4945490;28;37886;-82
2022/05/28 10:17:54;;;;;;;7.95;1.40;;;17.70;99.90;;;;;;4945161;28;38383;-80
2022/05/28 10:20:21;;;;;;;9.70;1.73;;;17.70;99.90;;;;;;4944097;28;39363;-82
2022/05/28 10:22:51;;;;;;;6.82;1.65;;;18.00;99.90;;;;;;4945252;28;39839;-78
2022/05/28 10:25:38;;;;;;;10.95;2.00;;;18.00;99.90;;;;;;4943352;28;38200;-79
2022/05/28 10:28:06;;;;;;;7.90;1.60;;;18.10;99.90;;;;;;4949560;28;40516;-77
2022/05/28 10:30:39;;;;;;;5.78;1.33;;;17.70;99.90;;;;;;4949420;28;40297;-78
2022/05/28 10:33:13;;;;;;;7.03;1.40;;;17.40;99.90;;;;;;4946307;28;38226;-79
2022/05/28 10:35:39;;;;;;;9.30;1.38;;;17.70;99.90;;;;;;4952342;28;38389;-78
2022/05/28 10:38:21;;;;;;;7.07;1.33;;;17.60;99.90;;;;;;4950587;28;39930;-79
2022/05/28 10:41:00;;;;;;;7.68;1.58;;;17.90;99.90;;;;;;4944227;28;39450;-80
2022/05/28 10:43:30;;;;;;;6.10;1.20;;;17.80;99.90;;;;;;4956216;28;47182;-78
2022/05/28 10:46:15;;;;;;;7.20;1.30;;;17.70;99.90;;;;;;4935559;28;37193;-78
2022/05/28 10:49:03;;;;;;;6.15;1.25;;;18.40;99.90;;;;;;4959349;28;47388;-81
2022/05/28 10:52:11;;;;;;;3.45;1.27;;;19.00;99.90;;;;;;4958238;28;47380;-79
2022/05/28 10:54:42;;;;;;;4.28;1.35;;;18.60;99.90;;;;;;4944829;28;48300;-78
2022/05/28 10:57:27;;;;;;;4.15;1.20;;;17.40;99.90;;;;;;4939956;28;37166;-81
2022/05/28 11:00:00;;;;;;;6.85;1.92;;;17.60;99.90;;;;;;4971029;28;40343;-83
2022/05/28 11:03:00;;;;;;;6.53;1.92;;;17.90;99.90;;;;;;4942176;28;40233;-79
2022/05/28 11:06:02;;;;;;;8.02;1.20;;;18.50;99.90;;;;;;4959866;28;39068;-79
2022/05/28 11:08:43;;;;;;;11.03;2.27;;;18.00;99.90;;;;;;4941781;28;47680;-78
2022/05/28 11:11:33;;;;;;;7.68;1.27;;;17.90;99.90;;;;;;4945054;28;38795;-78
2022/05/28 11:14:19;;;;;;;6.97;1.33;;;17.80;99.90;;;;;;4956079;28;38350;-76
2022/05/28 11:17:20;;;;;;;6.50;1.25;;;18.00;99.90;;;;;;4942167;28;47041;-82
2022/05/28 11:20:19;;;;;;;7.07;1.33;;;18.10;99.90;;;;;;4943584;28;47226;-78
2022/05/28 11:22:48;;;;;;;6.28;1.27;;;18.70;99.90;;;;;;4947025;28;47643;-78
2022/05/28 11:25:32;;;;;;;5.57;1.48;;;18.80;99.90;;;;;;4945558;28;39120;-79
2022/05/28 11:28:13;;;;;;;4.70;1.20;;;18.00;99.90;;;;;;4938257;28;39294;-79
2022/05/28 11:30:47;;;;;;;6.40;1.60;;;18.50;99.90;;;;;;4947934;28;49299;-79
2022/05/28 11:33:21;;;;;;;4.47;1.00;;;18.60;99.90;;;;;;4945146;28;39509;-77
2022/05/28 11:35:51;;;;;;;7.32;1.23;;;17.80;99.90;;;;;;4950179;28;39288;-79
2022/05/28 11:38:40;;;;;;;4.70;1.23;;;17.40;99.90;;;;;;4949578;28;39326;-78
2022/05/28 11:41:17;;;;;;;5.18;1.30;;;17.40;99.90;;;;;;4952186;28;37787;-83
2022/05/28 11:44:11;;;;;;;7.55;1.52;;;17.30;99.90;;;;;;4960598;28;39816;-79
2022/05/28 11:46:41;;;;;;;4.22;1.48;;;17.80;99.90;;;;;;4943038;28;48601;-80
2022/05/28 11:52:31;;;;;;;6.07;1.30;;;18.40;99.90;;;;;;4949139;28;38058;-76
2022/05/28 11:55:18;;;;;;;4.90;1.30;;;17.80;99.90;;;;;;4943043;28;38787;-78
2022/05/28 11:58:03;;;;;;;6.82;1.27;;;17.40;99.90;;;;;;4938905;28;47000;-78
2022/05/28 12:00:33;;;;;;;6.32;1.13;;;18.00;99.90;;;;;;4956088;28;46998;-78
2022/05/28 12:03:16;;;;;;;6.30;1.20;;;17.90;99.90;;;;;;4945035;28;37359;-77
2022/05/28 12:05:48;;;;;;;3.97;1.30;;;17.20;99.90;;;;;;4928445;28;47345;-75
2022/05/28 12:08:26;;;;;;;9.50;2.40;;;17.10;99.90;;;;;;4960544;28;40321;-77
2022/05/28 12:11:01;;;;;;;9.15;1.63;;;17.80;99.90;;;;;;4965469;28;39151;-75
2022/05/28 12:13:35;;;;;;;7.68;1.38;;;17.80;99.90;;;;;;4942728;28;47236;-78
2022/05/28 12:16:12;;;;;;;8.05;1.67;;;18.00;99.90;;;;;;4950522;28;41069;-78
2022/05/28 12:18:42;;;;;;;5.82;1.10;;;17.30;99.90;;;;;;4944641;28;39463;-79
2022/05/28 12:21:08;;;;;;;6.65;1.40;;;16.70;99.90;;;;;;4942602;28;39541;-79
2022/05/28 12:23:41;;;;;;;5.93;1.42;;;17.00;99.90;;;;;;4943375;28;39294;-82
2022/05/28 12:26:47;;;;;;;13.48;2.13;;;17.50;99.90;;;;;;4950247;28;38984;-78
2022/05/28 12:29:33;;;;;;;10.93;1.55;;;17.70;99.90;;;;;;4958813;28;39914;-76
2022/05/28 12:32:17;;;;;;;8.68;1.67;;;17.50;99.90;;;;;;4954799;28;37910;-78
2022/05/28 12:35:02;;;;;;;7.88;2.10;;;16.70;99.90;;;;;;4941648;28;49071;-79
2022/05/28 12:37:30;;;;;;;10.98;1.70;;;16.20;99.90;;;;;;4933899;28;48466;-78
2022/05/28 12:40:11;;;;;;;7.95;1.60;;;16.30;99.90;;;;;;4936691;28;38647;-80
2022/05/28 12:42:38;;;;;;;7.68;1.52;;;16.80;99.90;;;;;;4943612;28;48745;-77
2022/05/28 12:45:14;;;;;;;5.32;1.08;;;17.70;99.90;;;;;;4949100;28;37526;-76
2022/05/28 12:47:41;;;;;;;8.43;1.67;;;18.10;99.90;;;;;;4945783;28;38669;-75
2022/05/28 12:50:12;;;;;;;6.47;1.83;;;18.00;99.90;;;;;;4953055;28;39401;-75
2022/05/28 12:52:52;;;;;;;6.10;1.40;;;18.10;99.90;;;;;;4946546;28;40398;-76
2022/05/28 12:55:38;;;;;;;6.45;1.45;;;17.50;99.90;;;;;;4948481;28;37012;-75
2022/05/28 12:58:21;;;;;;;8.15;1.83;;;17.80;99.90;;;;;;4945032;28;40119;-76
2022/05/28 13:01:00;;;;;;;9.00;1.80;;;17.70;99.90;;;;;;4945448;28;40329;-77
2022/05/28 13:03:37;;;;;;;8.90;1.45;;;17.80;99.90;;;;;;4944827;28;48264;-76
2022/05/28 13:06:22;;;;;;;7.70;1.92;;;18.20;99.90;;;;;;4933846;28;40139;-75
2022/05/28 13:09:08;;;;;;;6.53;1.50;;;17.40;99.90;;;;;;4955514;28;39591;-77
2022/05/28 13:11:48;;;;;;;6.25;1.23;;;17.60;99.90;;;;;;4951101;28;47544;-79